Time;durP1;ratioP1;P1;durP2;ratioP2;P2;SDS_P1;SDS_P2;PMS_P1;PMS_P2;Temp;Humidity;BMP_temperature;BMP_pressure;BME280_temperature;BME280_humidity;BME280_pressure;Samples;Min_cycle;Max_cycle;Signal;HPM_P1;HPM_P2
2021/12/03 04:32:09;;;;;;;0.50;0.50;;;;;;;-0.36;37.85;91665.03;6223111;22;20024;-79
2021/12/03 04:34:36;;;;;;;0.60;0.60;;;;;;;-0.44;39.42;91668.00;6188445;23;20051;-79
2021/12/03 04:37:03;;;;;;;0.50;0.50;;;;;;;-0.31;37.15;91672.78;6238903;23;20028;-79
2021/12/03 04:39:29;;;;;;;0.65;0.65;;;;;;;-0.39;38.27;91655.19;6186319;23;20076;-79
2021/12/03 04:41:54;;;;;;;0.68;0.68;;;;;;;-0.40;38.88;91671.66;6187048;22;20084;-79
2021/12/03 04:44:20;;;;;;;0.60;0.60;;;;;;;-0.36;36.21;91662.44;6238897;23;20016;-79
2021/12/03 04:46:46;;;;;;;0.70;0.70;;;;;;;0.06;35.77;91661.84;6187463;22;20060;-81
2021/12/03 04:49:11;;;;;;;0.70;0.70;;;;;;;0.06;36.22;91661.09;6241177;23;20015;-80
2021/12/03 04:51:37;;;;;;;0.55;0.55;;;;;;;-0.05;36.21;91685.94;6215605;22;20430;-81
2021/12/03 04:54:02;;;;;;;0.50;0.50;;;;;;;0.04;35.52;91671.63;6214864;23;20021;-80
2021/12/03 04:56:28;;;;;;;0.70;0.70;;;;;;;-0.08;36.22;91665.84;6189885;23;20065;-80
2021/12/03 04:58:55;;;;;;;0.63;0.63;;;;;;;-0.25;36.60;91661.56;6240886;23;20064;-80
2021/12/03 05:01:21;;;;;;;0.57;0.57;;;;;;;-0.34;36.83;91659.63;6189820;23;20004;-81
2021/12/03 05:03:46;;;;;;;0.73;0.73;;;;;;;-0.40;36.65;91671.66;6242555;23;20012;-80
2021/12/03 05:06:16;;;;;;;0.65;0.60;;;;;;;-0.39;37.91;91680.13;6191129;23;20012;-80
2021/12/03 05:08:42;;;;;;;0.60;0.60;;;;;;;-0.49;36.96;91691.09;6214807;23;20009;-81
2021/12/03 05:11:08;;;;;;;0.50;0.50;;;;;;;-0.53;36.92;91680.50;6239268;23;20000;-79
2021/12/03 05:13:36;;;;;;;1.55;0.80;;;;;;;-0.59;37.45;91684.00;6240366;23;20008;-79
2021/12/03 05:16:04;;;;;;;0.60;0.60;;;;;;;-0.61;37.64;91692.97;6213432;23;20012;-79
2021/12/03 05:18:30;;;;;;;0.63;0.63;;;;;;;-0.59;36.96;91688.38;6213742;23;20100;-81
2021/12/03 05:20:58;;;;;;;0.82;0.68;;;;;;;-0.64;37.77;91700.13;6242710;23;20000;-76
2021/12/03 05:23:26;;;;;;;0.60;0.60;;;;;;;-0.69;37.53;91705.22;6211438;22;20343;-76
2021/12/03 05:26:11;;;;;;;2.70;0.70;;;;;;;-0.50;37.21;91699.78;6213411;22;20007;-75
2021/12/03 05:28:36;;;;;;;0.50;0.50;;;;;;;-0.46;35.54;91695.75;6238512;23;20040;-77
2021/12/03 05:31:02;;;;;;;0.60;0.60;;;;;;;-0.52;36.09;91706.97;6186002;22;20024;-78
2021/12/03 05:33:28;;;;;;;0.60;0.60;;;;;;;-0.56;36.57;91711.81;6186425;23;20465;-77
2021/12/03 05:35:53;;;;;;;0.60;0.60;;;;;;;-0.66;37.08;91715.00;6211652;23;20023;-77
2021/12/03 05:38:19;;;;;;;0.70;0.70;;;;;;;-0.57;36.48;91725.69;6186726;22;20448;-77
2021/12/03 05:40:44;;;;;;;0.60;0.60;;;;;;;-0.48;35.94;91731.19;6212866;23;20449;-78
2021/12/03 05:43:10;;;;;;;0.63;0.60;;;;;;;-0.48;38.10;91738.91;6238251;23;20094;-77
2021/12/03 05:45:37;;;;;;;0.60;0.60;;;;;;;-0.54;37.91;91737.28;6237994;23;20007;-77
2021/12/03 05:48:03;;;;;;;0.88;0.65;;;;;;;-0.68;37.52;91742.75;6240137;23;20027;-78
2021/12/03 05:50:29;;;;;;;0.82;0.80;;;;;;;-0.78;37.72;91750.31;6239310;23;20365;-80
2021/12/03 05:52:57;;;;;;;1.05;0.75;;;;;;;-0.80;37.76;91762.63;6239616;23;20137;-79
2021/12/03 05:55:23;;;;;;;0.60;0.60;;;;;;;-0.82;37.57;91764.66;6240610;23;20007;-77
2021/12/03 05:57:48;;;;;;;1.10;0.80;;;;;;;-0.78;36.32;91768.31;6212870;23;20012;-76
2021/12/03 06:00:21;;;;;;;0.63;0.63;;;;;;;-0.84;37.69;91775.16;6238683;23;20039;-76
2021/12/03 06:02:47;;;;;;;1.00;0.73;;;;;;;-0.90;38.37;91783.00;6214515;23;20042;-76
2021/12/03 06:05:33;;;;;;;0.55;0.55;;;;;;;-0.98;37.76;91788.56;6213063;23;20000;-77
2021/12/03 06:07:59;;;;;;;0.60;0.60;;;;;;;-1.01;37.67;91784.66;6239997;23;20008;-75
2021/12/03 06:10:26;;;;;;;1.48;0.93;;;;;;;-1.06;37.67;91798.22;6239082;23;20057;-76
2021/12/03 06:12:52;;;;;;;0.65;0.65;;;;;;;-1.10;38.27;91804.81;6237816;23;20016;-76
2021/12/03 06:15:19;;;;;;;0.95;0.70;;;;;;;-0.85;36.37;91806.25;6239705;22;20011;-77
2021/12/03 06:17:44;;;;;;;0.60;0.60;;;;;;;-0.94;36.54;91818.69;6213723;23;20384;-76
2021/12/03 06:20:11;;;;;;;0.55;0.55;;;;;;;-0.99;36.48;91822.94;6237966;23;20008;-77
2021/12/03 06:22:38;;;;;;;0.50;0.50;;;;;;;-0.98;36.67;91827.09;6237600;23;20227;-76
2021/12/03 06:25:05;;;;;;;0.75;0.70;;;;;;;-0.94;37.83;91835.91;6238772;23;20004;-76
2021/12/03 06:27:31;;;;;;;0.50;0.50;;;;;;;-1.05;37.49;91832.38;6238808;23;20072;-76
2021/12/03 06:29:57;;;;;;;0.77;0.77;;;;;;;-1.02;37.27;91836.28;6212746;23;20000;-76
2021/12/03 06:32:24;;;;;;;0.60;0.60;;;;;;;-1.09;36.90;91837.19;6231859;22;20680;-76
2021/12/03 06:34:49;;;;;;;0.60;0.60;;;;;;;-1.11;37.26;91848.72;6234118;22;20452;-76
2021/12/03 06:37:15;;;;;;;0.65;0.65;;;;;;;-1.13;37.41;91845.59;6233166;22;20010;-76
2021/12/03 06:39:41;;;;;;;0.60;0.60;;;;;;;-1.03;36.80;91847.56;6366179;22;20009;-76
2021/12/03 06:42:07;;;;;;;0.77;0.77;;;;;;;-0.93;36.62;91840.78;6367676;22;20013;-76
2021/12/03 06:44:33;;;;;;;0.60;0.60;;;;;;;-0.89;36.81;91846.25;6367922;22;20231;-77
2021/12/03 06:47:02;;;;;;;1.33;0.77;;;;;;;-0.91;36.47;91840.56;6367348;22;20010;-76
2021/12/03 06:49:29;;;;;;;0.60;0.60;;;;;;;-0.98;36.91;91840.72;6232907;22;20007;-76
2021/12/03 06:52:02;;;;;;;0.60;0.60;;;;;;;-0.99;36.55;91846.06;6233236;22;20021;-76
2021/12/03 06:54:31;;;;;;;0.60;0.60;;;;;;;-0.98;36.08;91847.66;6367249;22;20096;-76
2021/12/03 06:56:58;;;;;;;0.60;0.60;;;;;;;-0.96;36.12;91856.69;6367153;22;20006;-76
2021/12/03 06:59:24;;;;;;;0.70;0.70;;;;;;;-0.95;36.86;91857.44;6367213;22;20072;-76
2021/12/03 07:01:51;;;;;;;0.70;0.70;;;;;;;-0.93;36.67;91860.56;6367469;22;19995;-75
2021/12/03 07:04:17;;;;;;;0.70;0.70;;;;;;;-0.91;36.39;91873.97;6234780;22;20014;-76
2021/12/03 07:06:43;;;;;;;1.25;0.70;;;;;;;-0.91;36.49;91874.75;6367281;22;20079;-76
2021/12/03 07:09:10;;;;;;;0.77;0.75;;;;;;;-0.90;36.78;91884.03;6366375;22;20010;-75
2021/12/03 07:11:35;;;;;;;0.70;0.70;;;;;;;-0.89;35.41;91888.16;6233218;22;20089;-76
2021/12/03 07:14:02;;;;;;;0.80;0.80;;;;;;;1.04;34.32;91888.50;6233379;22;20476;-76
2021/12/03 07:16:28;;;;;;;0.77;0.77;;;;;;;4.07;28.65;91889.94;6232796;22;20731;-76
2021/12/03 07:18:54;;;;;;;0.73;0.73;;;;;;;6.33;25.36;91897.47;6368049;22;20196;-77
2021/12/03 07:21:20;;;;;;;0.80;0.80;;;;;;;7.77;23.24;91899.97;6207866;22;20012;-77
2021/12/03 07:23:49;;;;;;;1.17;0.90;;;;;;;9.08;21.47;91899.16;6232898;22;20014;-77
2021/12/03 07:26:15;;;;;;;1.10;0.90;;;;;;;10.44;20.21;91898.31;6232901;22;20021;-77
2021/12/03 07:28:41;;;;;;;1.10;0.98;;;;;;;11.30;18.25;91899.75;6367140;22;20002;-77
2021/12/03 07:31:06;;;;;;;1.25;0.80;;;;;;;12.60;16.90;91904.31;6208527;22;20029;-77
2021/12/03 07:33:32;;;;;;;1.15;0.85;;;;;;;13.38;16.36;91907.81;6235472;22;20408;-78
2021/12/03 07:35:58;;;;;;;1.02;0.70;;;;;;;14.33;15.64;91911.69;6368551;22;20262;-78
2021/12/03 07:38:24;;;;;;;1.52;1.00;;;;;;;15.04;15.24;91920.50;6235289;22;20010;-78
2021/12/03 07:40:50;;;;;;;1.35;0.90;;;;;;;15.54;13.81;91919.47;6368782;22;20397;-77
2021/12/03 07:43:17;;;;;;;0.60;0.60;;;;;;;16.18;14.15;91925.88;6235904;22;20034;-78
2021/12/03 07:45:44;;;;;;;0.73;0.73;;;;;;;16.36;14.02;91926.38;6370746;22;20032;-78
2021/12/03 07:48:10;;;;;;;0.65;0.65;;;;;;;17.19;12.99;91924.81;6236782;22;20007;-78
2021/12/03 07:50:38;;;;;;;0.70;0.70;;;;;;;17.70;12.87;91926.78;6370441;22;20064;-79
2021/12/03 07:53:05;;;;;;;0.90;0.70;;;;;;;17.97;12.52;91924.38;6371699;22;20006;-79
2021/12/03 07:55:31;;;;;;;0.60;0.60;;;;;;;18.98;12.43;91927.97;6211381;22;20441;-78
2021/12/03 07:57:57;;;;;;;0.77;0.63;;;;;;;18.87;10.88;91932.31;6237609;22;20014;-79
2021/12/03 08:00:23;;;;;;;0.77;0.70;;;;;;;19.15;11.06;91932.03;6237271;22;20005;-79
2021/12/03 08:02:49;;;;;;;0.77;0.75;;;;;;;20.14;10.28;91937.41;6371079;22;20014;-79
2021/12/03 08:05:15;;;;;;;0.73;0.60;;;;;;;20.55;10.54;91939.47;6236904;22;20005;-80
2021/12/03 08:07:45;;;;;;;1.27;0.70;;;;;;;20.54;9.78;91940.59;6241743;22;20030;-80
2021/12/03 08:10:12;;;;;;;0.70;0.63;;;;;;;20.74;10.11;91934.03;6236824;22;19998;-79
2021/12/03 08:12:42;;;;;;;0.68;0.50;;;;;;;20.71;10.52;91936.66;6371472;22;20006;-80
2021/12/03 08:15:08;;;;;;;0.57;0.50;;;;;;;21.45;9.61;91932.50;6371049;22;20070;-80
2021/12/03 08:17:34;;;;;;;0.43;0.43;;;;;;;21.68;9.06;91943.72;6236701;22;20040;-80
2021/12/03 08:20:00;;;;;;;1.08;0.80;;;;;;;21.70;9.00;91944.13;6371850;22;20081;-80
2021/12/03 08:22:27;;;;;;;0.70;0.70;;;;;;;21.95;8.92;91946.22;6236599;22;20124;-80
2021/12/03 08:24:52;;;;;;;0.68;0.68;;;;;;;22.19;8.61;91952.88;6371732;22;20379;-80
2021/12/03 08:27:18;;;;;;;0.63;0.60;;;;;;;21.80;8.82;91948.78;6237454;22;20025;-80
2021/12/03 08:29:43;;;;;;;1.95;0.90;;;;;;;22.54;8.78;91949.69;6370992;22;20416;-80
2021/12/03 08:32:12;;;;;;;0.60;0.60;;;;;;;22.80;8.57;91956.63;6275365;22;20072;-80
2021/12/03 08:34:38;;;;;;;0.90;0.80;;;;;;;23.31;7.73;91962.94;6243135;23;20039;-80
2021/12/03 08:37:06;;;;;;;0.50;0.50;;;;;;;22.78;8.49;91969.59;6192038;23;20084;-80
2021/12/03 08:39:32;;;;;;;0.60;0.60;;;;;;;21.88;9.09;91965.56;6217157;23;20040;-79
2021/12/03 08:41:58;;;;;;;0.57;0.57;;;;;;;22.95;7.88;91976.16;6217530;23;20080;-80
2021/12/03 08:44:24;;;;;;;0.65;0.60;;;;;;;22.51;7.72;91971.75;6244037;23;20493;-80
2021/12/03 08:47:03;;;;;;;0.65;0.65;;;;;;;22.32;8.13;91974.69;6245063;23;20000;-80
2021/12/03 08:49:31;;;;;;;0.30;0.30;;;;;;;21.73;8.45;92002.00;6244278;23;20023;-80
2021/12/03 08:57:11;;;;;;;0.30;0.30;;;;;;;16.78;10.97;92003.44;6244595;23;20013;-80
2021/12/03 08:59:37;;;;;;;0.63;0.50;;;;;;;16.31;11.56;92013.78;6216977;23;20023;-80
2021/12/03 09:02:03;;;;;;;0.50;0.50;;;;;;;16.52;11.11;92024.19;6244512;23;20016;-79
2021/12/03 09:04:29;;;;;;;0.60;0.50;;;;;;;17.34;11.52;92028.34;6244471;23;19997;-80
2021/12/03 09:06:56;;;;;;;0.35;0.35;;;;;;;17.90;10.96;92009.72;6243628;23;20073;-80
2021/12/03 09:09:22;;;;;;;0.40;0.40;;;;;;;17.52;11.49;92016.34;6243477;23;20008;-80
2021/12/03 09:11:48;;;;;;;0.55;0.50;;;;;;;16.91;10.83;92025.34;6243535;23;20053;-80
2021/12/03 09:14:22;;;;;;;0.40;0.40;;;;;;;16.08;11.30;92024.03;6191963;23;20080;-78
2021/12/03 09:16:56;;;;;;;0.90;0.50;;;;;;;15.82;12.69;92022.47;6243942;23;20020;-79
2021/12/03 09:19:27;;;;;;;0.50;0.50;;;;;;;15.28;10.75;92035.78;6242874;23;20084;-79
2021/12/03 09:21:53;;;;;;;0.45;0.45;;;;;;;15.46;11.65;92031.09;6243899;23;20013;-79
2021/12/03 09:24:25;;;;;;;0.95;0.70;;;;;;;15.57;11.78;92035.63;6193196;23;20091;-79
2021/12/03 09:26:51;;;;;;;0.50;0.50;;;;;;;15.28;13.16;92038.41;6218515;22;20073;-79
2021/12/03 09:29:24;;;;;;;0.40;0.40;;;;;;;15.01;13.41;92045.78;6244580;23;20324;-78
2021/12/03 09:31:50;;;;;;;0.38;0.38;;;;;;;14.87;13.28;92045.28;6245092;23;20024;-79
2021/12/03 09:34:19;;;;;;;0.50;0.50;;;;;;;14.88;12.44;92047.63;6218522;23;20012;-79
2021/12/03 09:36:44;;;;;;;0.57;0.50;;;;;;;14.54;13.16;92052.03;6244853;23;20077;-79
2021/12/03 09:39:23;;;;;;;0.60;0.57;;;;;;;13.59;13.19;92057.75;6218730;23;20009;-79
2021/12/03 09:41:51;;;;;;;2.00;0.60;;;;;;;13.84;13.66;92064.00;6245959;23;20016;-79
2021/12/03 09:44:17;;;;;;;0.73;0.60;;;;;;;13.99;14.41;92062.72;6244428;23;20431;-79
2021/12/03 09:46:43;;;;;;;0.40;0.40;;;;;;;14.01;11.44;92052.66;6218829;23;20016;-79
2021/12/03 09:49:33;;;;;;;0.68;0.60;;;;;;;12.42;12.97;92060.31;6218538;23;19992;-79
2021/12/03 09:52:15;;;;;;;1.45;0.70;;;;;;;12.61;14.36;92066.06;6218289;23;20016;-79
2021/12/03 09:54:44;;;;;;;1.00;0.70;;;;;;;11.62;14.54;92070.88;6246228;23;20343;-78
2021/12/03 09:57:16;;;;;;;1.05;0.52;;;;;;;9.93;14.17;92069.41;6244474;23;20000;-78
2021/12/03 10:02:30;;;;;;;0.47;0.47;;;;;;;11.29;15.26;92083.50;6217735;23;20008;-78
2021/12/03 10:13:32;;;;;;;0.65;0.65;;;;;;;11.77;15.26;92072.31;6239973;23;20012;-76
2021/12/03 10:16:07;;;;;;;0.50;0.50;;;;;;;11.17;15.49;92068.34;6238629;23;20012;-77
2021/12/03 10:18:46;;;;;;;0.50;0.50;;;;;;;11.43;15.32;92068.47;6239086;23;20008;-77
2021/12/03 10:21:39;;;;;;;1.10;0.70;;;;;;;11.34;15.16;92051.91;6239332;23;20538;-77
2021/12/03 10:29:38;;;;;;;1.33;0.80;;;;;;;9.30;17.22;92063.78;6215134;23;20104;-77
2021/12/03 10:41:15;;;;;;;0.40;0.40;;;;;;;11.06;15.88;92044.22;6214671;23;20061;-78
2021/12/03 10:48:54;;;;;;;1.50;0.63;;;;;;;12.06;14.28;92035.09;6216068;23;20324;-78
2021/12/03 10:51:34;;;;;;;1.80;0.90;;;;;;;11.17;14.62;92035.03;6243668;23;20019;-78
2021/12/03 10:54:10;;;;;;;0.90;0.60;;;;;;;10.35;13.88;92036.91;6243090;23;20031;-78
2021/12/03 10:56:49;;;;;;;2.83;0.93;;;;;;;8.39;16.47;92021.59;6218117;23;20020;-78
2021/12/03 11:07:27;;;;;;;1.40;0.85;;;;;;;8.86;17.03;92028.47;6240750;23;20439;-77
2021/12/03 11:27:07;;;;;;;2.22;1.00;;;;;;;8.32;17.44;92022.72;6240318;23;20405;-78
2021/12/03 11:34:49;;;;;;;2.08;1.15;;;;;;;7.11;17.55;92026.53;6255883;23;20020;-80
2021/12/03 11:37:39;;;;;;;4.28;1.50;;;;;;;6.81;16.81;92033.56;6256916;23;20060;-79
2021/12/03 11:43:37;;;;;;;0.85;0.75;;;;;;;6.54;18.83;92038.47;6248676;23;20018;-79
2021/12/03 12:18:38;;;;;;;0.50;0.50;;;;;;;9.28;14.64;92013.66;6246034;23;20397;-79
2021/12/03 12:58:20;;;;;;;0.50;0.50;;;;;;;10.36;16.57;92032.47;6212620;22;20008;-77
2021/12/03 14:21:39;;;;;;;0.95;0.60;;;;;;;7.94;20.71;92011.53;6243189;22;20004;-79
2021/12/03 14:56:46;;;;;;;0.98;0.70;;;;;;;4.93;30.50;92047.19;6244324;23;20008;-79
2021/12/03 14:59:22;;;;;;;1.52;1.10;;;;;;;4.79;28.31;92049.53;6245560;23;20004;-81
2021/12/03 15:07:10;;;;;;;1.10;0.70;;;;;;;4.57;23.81;92060.19;6217796;23;20095;-80
2021/12/03 15:09:42;;;;;;;1.15;0.70;;;;;;;4.48;24.20;92061.75;6218697;23;20018;-80
2021/12/03 15:15:23;;;;;;;0.80;0.60;;;;;;;4.37;24.24;92065.38;6216672;23;20051;-80
2021/12/03 15:23:01;;;;;;;1.88;1.08;;;;;;;4.06;27.81;92074.91;6243267;23;20008;-80
2021/12/03 15:33:21;;;;;;;0.82;0.70;;;;;;;3.59;25.34;92076.56;6217769;23;20328;-80
2021/12/03 15:36:02;;;;;;;0.60;0.52;;;;;;;3.46;24.79;92059.66;6242968;23;20057;-78
2021/12/03 15:38:58;;;;;;;1.17;0.80;;;;;;;3.39;25.69;92077.25;6240323;23;20016;-78
2021/12/03 15:58:20;;;;;;;2.35;1.10;;;;;;;2.92;24.86;92111.63;6248498;23;20384;-78
2021/12/03 16:08:56;;;;;;;0.93;0.70;;;;;;;2.60;23.60;92127.16;6216567;23;20000;-78
2021/12/03 16:11:46;;;;;;;1.13;0.70;;;;;;;2.53;24.42;92119.59;6216254;23;20446;-77
2021/12/03 16:22:20;;;;;;;0.80;0.80;;;;;;;2.15;26.63;92134.22;6169478;23;20020;-78
2021/12/03 16:25:05;;;;;;;0.93;0.77;;;;;;;2.08;25.69;92131.81;6198720;23;20389;-78
2021/12/03 16:46:52;;;;;;;0.47;0.47;;;;;;;1.75;26.63;92135.31;6214330;23;20016;-77
2021/12/03 16:52:03;;;;;;;2.25;0.70;;;;;;;1.58;27.80;92150.09;6215755;23;20011;-78
2021/12/03 16:54:52;;;;;;;1.20;0.82;;;;;;;1.52;26.92;92145.88;6242536;23;20039;-78
2021/12/03 16:57:18;;;;;;;2.20;0.80;;;;;;;1.52;27.17;92140.72;6242425;23;20079;-78
2021/12/03 16:59:46;;;;;;;1.85;0.98;;;;;;;1.49;27.54;92146.34;6215499;23;20008;-81
2021/12/03 17:02:21;;;;;;;3.88;1.00;;;;;;;1.40;28.20;92144.19;6242054;23;20443;-77
2021/12/03 17:58:22;;;;;;;0.70;0.70;;;;;;;0.08;34.47;92195.16;6244177;23;20394;-77
2021/12/03 18:00:56;;;;;;;1.23;1.00;;;;;;;0.03;35.52;92197.66;6244818;23;20035;-78
2021/12/03 18:03:30;;;;;;;3.33;1.40;;;;;;;-0.01;35.45;92201.69;6215800;23;20012;-77
2021/12/03 18:49:51;;;;;;;4.85;1.17;;;;;;;-0.26;37.44;92207.88;6242234;23;20008;-83
2021/12/03 18:54:53;;;;;;;5.35;2.28;;;;;;;-0.36;37.57;92207.69;6217035;22;20026;-81
2021/12/03 18:57:22;;;;;;;4.05;2.13;;;;;;;-0.42;36.16;92211.16;6241601;23;20016;-79
2021/12/03 18:59:56;;;;;;;2.67;1.42;;;;;;;-0.43;36.40;92212.94;6243140;23;20012;-78
2021/12/03 19:02:23;;;;;;;1.25;0.90;;;;;;;-0.42;37.82;92211.16;6216164;23;20038;-82
2021/12/03 19:05:00;;;;;;;2.03;1.13;;;;;;;-0.48;37.90;92219.75;6241406;23;20005;-80
2021/12/03 19:07:44;;;;;;;5.53;1.58;;;;;;;-0.51;38.15;92223.56;6216848;23;20016;-81
2021/12/03 19:10:21;;;;;;;25.33;6.95;;;;;;;-0.57;37.54;92223.69;6243700;23;20011;-81
2021/12/03 19:12:56;;;;;;;23.30;6.72;;;;;;;-0.59;38.07;92223.13;6245055;23;20008;-81
2021/12/03 19:15:22;;;;;;;12.32;4.13;;;;;;;-0.61;37.59;92217.41;6218038;23;20023;-81
2021/12/03 19:17:48;;;;;;;10.77;3.58;;;;;;;-0.59;36.35;92218.75;6216807;23;20004;-81
2021/12/03 19:20:20;;;;;;;25.58;6.88;;;;;;;-0.60;38.28;92229.28;6216880;23;20016;-82
2021/12/03 19:22:51;;;;;;;29.55;7.05;;;;;;;-0.63;38.69;92223.59;6244163;23;20020;-81
2021/12/03 19:25:17;;;;;;;15.60;5.25;;;;;;;-0.62;40.61;92216.66;6245862;23;20399;-79
2021/12/03 19:27:43;;;;;;;13.00;4.35;;;;;;;-0.65;39.42;92228.16;6215592;23;20007;-79
2021/12/03 19:30:09;;;;;;;6.43;2.67;;;;;;;-0.68;39.51;92232.97;6241627;23;20012;-81
2021/12/03 19:32:36;;;;;;;5.70;2.70;;;;;;;-0.71;38.63;92236.75;6214335;22;20016;-81
2021/12/03 19:35:03;;;;;;;4.00;2.00;;;;;;;-0.73;38.18;92249.03;6189142;23;20023;-80
2021/12/03 19:37:29;;;;;;;3.58;1.92;;;;;;;-0.73;37.57;92256.75;6242201;23;20008;-80
2021/12/03 19:40:01;;;;;;;3.15;1.60;;;;;;;-0.76;37.37;92259.78;6242743;23;20016;-80
2021/12/03 19:42:37;;;;;;;2.70;1.20;;;;;;;-0.78;36.72;92254.09;6241134;22;20034;-80
2021/12/03 19:45:07;;;;;;;2.08;1.23;;;;;;;-0.77;36.79;92253.06;6241568;23;20019;-80
2021/12/03 19:47:46;;;;;;;2.33;1.13;;;;;;;-0.77;37.46;92249.72;6242575;23;20012;-81
2021/12/03 19:52:58;;;;;;;1.88;1.10;;;;;;;-0.84;36.49;92237.75;6239002;23;20016;-79
2021/12/03 19:55:24;;;;;;;1.35;1.00;;;;;;;-0.86;36.96;92244.91;6238441;23;20048;-80
2021/12/03 19:57:49;;;;;;;1.70;1.13;;;;;;;-0.88;38.78;92253.84;6236917;23;20023;-80
2021/12/03 20:00:16;;;;;;;0.73;0.73;;;;;;;-0.90;38.36;92255.84;6210657;23;20394;-79
2021/12/03 20:02:42;;;;;;;1.00;0.90;;;;;;;-0.91;38.64;92262.00;6238015;22;20114;-80
2021/12/03 20:05:08;;;;;;;2.00;1.00;;;;;;;-0.91;38.10;92265.34;6210429;23;20031;-80
2021/12/03 20:07:34;;;;;;;1.60;0.90;;;;;;;-0.91;38.13;92260.19;6185555;23;20462;-79
2021/12/03 20:10:08;;;;;;;0.85;0.80;;;;;;;-0.92;38.03;92263.00;6237499;23;20000;-79
2021/12/03 20:12:34;;;;;;;2.47;1.00;;;;;;;-0.95;38.33;92256.50;6237952;23;20185;-81
2021/12/03 20:15:02;;;;;;;0.93;0.80;;;;;;;-0.95;38.32;92253.94;6214481;23;20487;-80
2021/12/03 20:17:31;;;;;;;1.17;1.00;;;;;;;-0.94;38.20;92265.78;6214229;22;20085;-79
2021/12/03 20:19:59;;;;;;;1.40;0.88;;;;;;;-0.92;37.26;92268.16;6214489;22;20193;-80
2021/12/03 20:27:47;;;;;;;0.80;0.77;;;;;;;-0.92;36.33;92268.16;6212491;23;20031;-80
2021/12/03 20:30:25;;;;;;;0.85;0.85;;;;;;;-0.91;36.58;92267.13;6192064;23;20032;-80
2021/12/03 20:33:06;;;;;;;0.80;0.80;;;;;;;-0.90;36.92;92272.06;6244974;23;20455;-79
2021/12/03 20:38:04;;;;;;;2.05;1.30;;;;;;;-0.83;37.90;92256.53;6218565;23;20012;-80
2021/12/03 20:40:33;;;;;;;2.50;1.20;;;;;;;-0.84;39.09;92260.09;6247745;23;20036;-81
2021/12/03 20:43:25;;;;;;;2.80;1.40;;;;;;;-0.86;38.76;92267.25;6219341;23;20035;-79
2021/12/03 20:46:03;;;;;;;2.22;1.10;;;;;;;-0.88;38.69;92270.06;6219174;23;20016;-80
2021/12/03 20:48:50;;;;;;;2.25;1.30;;;;;;;-0.89;37.90;92277.97;6246832;23;20077;-80
2021/12/03 20:51:46;;;;;;;1.65;1.05;;;;;;;-0.89;37.37;92289.03;6220536;23;20024;-81
2021/12/03 20:59:41;;;;;;;2.17;1.30;;;;;;;-0.91;38.60;92310.81;6220996;23;20012;-81
2021/12/03 21:10:24;;;;;;;2.53;1.40;;;;;;;-0.99;40.43;92288.00;6246812;23;20452;-81
2021/12/03 21:12:52;;;;;;;3.20;1.60;;;;;;;-0.99;41.80;92288.00;6245324;23;20016;-80
2021/12/03 21:20:37;;;;;;;3.28;1.50;;;;;;;-1.01;39.09;92290.00;6220330;23;20413;-80
2021/12/03 21:23:06;;;;;;;4.90;1.80;;;;;;;-1.01;40.72;92284.88;6219415;23;20016;-79
2021/12/03 21:25:34;;;;;;;5.28;1.60;;;;;;;-0.97;42.24;92286.78;6170519;23;20235;-80
2021/12/03 21:30:55;;;;;;;3.67;1.65;;;;;;;-0.91;42.17;92287.69;6246511;23;20013;-80
2021/12/03 21:41:59;;;;;;;2.28;1.48;;;;;;;-0.89;41.02;92298.53;6153586;23;20301;-80
2021/12/03 21:44:25;;;;;;;3.28;1.50;;;;;;;-0.88;41.09;92300.09;6248945;22;20067;-79
2021/12/03 21:46:51;;;;;;;5.05;1.48;;;;;;;-0.88;41.18;92284.66;6221325;23;20072;-78
2021/12/03 21:49:16;;;;;;;2.58;1.45;;;;;;;-0.88;41.74;92282.09;6249355;22;20027;-81
2021/12/03 21:51:43;;;;;;;2.28;1.30;;;;;;;-0.88;42.39;92282.91;6250037;23;20012;-81
2021/12/03 21:54:14;;;;;;;2.58;1.50;;;;;;;-0.88;42.70;92275.19;6223630;23;20000;-80
2021/12/03 21:56:43;;;;;;;2.97;1.70;;;;;;;-0.85;43.24;92273.97;6197966;22;20015;-79
2021/12/03 21:59:09;;;;;;;4.28;1.70;;;;;;;-0.87;42.66;92269.03;6249626;23;20036;-80
2021/12/03 22:01:35;;;;;;;3.15;1.40;;;;;;;-0.86;41.26;92257.78;6220444;23;20039;-77
2021/12/03 22:04:01;;;;;;;3.22;1.60;;;;;;;-0.82;40.76;92255.53;6249284;23;20083;-78
2021/12/03 22:06:29;;;;;;;3.55;1.65;;;;;;;-0.81;40.72;92257.09;6171455;23;20016;-80
2021/12/03 22:08:58;;;;;;;2.78;1.67;;;;;;;-0.79;42.41;92267.91;6222871;23;20371;-80
2021/12/03 22:11:26;;;;;;;2.58;1.33;;;;;;;-0.76;42.71;92267.50;6247808;23;20461;-80
2021/12/03 22:13:52;;;;;;;2.05;1.50;;;;;;;-0.76;42.36;92262.34;6249641;23;19996;-79
2021/12/03 22:16:19;;;;;;;4.68;1.73;;;;;;;-0.72;42.44;92266.06;6197247;23;20076;-80
2021/12/03 22:18:47;;;;;;;2.78;1.40;;;;;;;-0.72;42.16;92272.97;6250085;23;20051;-80
2021/12/03 22:21:13;;;;;;;2.58;1.40;;;;;;;-0.73;41.77;92279.91;6248332;23;20392;-78
2021/12/03 22:23:42;;;;;;;2.67;1.40;;;;;;;-0.72;41.44;92278.91;6250091;23;20420;-81
2021/12/03 22:26:10;;;;;;;2.42;1.27;;;;;;;-0.70;40.88;92281.25;6220182;23;20681;-81
2021/12/03 22:28:36;;;;;;;2.88;1.30;;;;;;;-0.75;41.16;92276.75;6248904;23;20010;-80
2021/12/03 22:31:02;;;;;;;2.72;1.50;;;;;;;-0.75;40.92;92276.75;6249450;23;20016;-78
2021/12/03 22:33:28;;;;;;;3.33;1.40;;;;;;;-0.78;40.85;92274.66;6222805;23;20039;-77
2021/12/03 22:35:54;;;;;;;5.72;1.35;;;;;;;-0.81;41.59;92280.25;6219786;23;20030;-80
2021/12/03 22:38:20;;;;;;;4.65;1.42;;;;;;;-0.82;41.15;92273.50;6246945;23;20004;-81
2021/12/03 22:40:47;;;;;;;2.17;1.30;;;;;;;-0.85;41.38;92268.84;6220435;23;20038;-80
2021/12/03 22:43:14;;;;;;;2.53;1.27;;;;;;;-0.85;41.58;92271.41;6246011;23;19996;-77
2021/12/03 22:45:59;;;;;;;3.15;1.50;;;;;;;-0.85;42.33;92281.69;6244902;23;20107;-80
2021/12/03 22:53:37;;;;;;;2.20;1.20;;;;;;;-0.88;41.94;92269.25;6243855;23;20046;-80
2021/12/03 22:56:05;;;;;;;2.53;1.52;;;;;;;-0.87;42.00;92270.84;6246141;23;20001;-79
2021/12/03 22:58:31;;;;;;;3.38;1.60;;;;;;;-0.91;41.69;92260.19;6248021;23;20020;-80
